createdAt,value
2018-08-10T00:00:28.362Z,95243.20
2018-08-10T00:02:57.220Z,95239.53
2018-08-10T00:05:26.038Z,95240.42
2018-08-10T00:07:54.794Z,95245.48
2018-08-10T00:10:24.042Z,95248.50
2018-08-10T00:12:53.142Z,95240.38
2018-08-10T00:15:22.193Z,95243.48
2018-08-10T00:17:51.222Z,95252.68
2018-08-10T00:20:20.590Z,95249.30
2018-08-10T00:22:49.604Z,95250.94
2018-08-10T00:25:18.911Z,95245.57
2018-08-10T00:27:48.326Z,95255.48
2018-08-10T00:30:18.739Z,95259.00
2018-08-10T00:32:49.920Z,95260.40
2018-08-10T00:35:18.633Z,95254.39
2018-08-10T00:37:48.904Z,95262.73
2018-08-10T00:40:21.106Z,95260.20
2018-08-10T00:42:50.264Z,95261.55
2018-08-10T00:45:19.774Z,95265.50
2018-08-10T00:47:49.028Z,95261.05
2018-08-10T00:50:19.190Z,95260.41
2018-08-10T00:52:48.947Z,95268.69
2018-08-10T00:55:19.650Z,95266.38
2018-08-10T00:57:49.184Z,95265.17
2018-08-10T01:00:21.994Z,95264.09
2018-08-10T01:02:51.310Z,95265.61
2018-08-10T01:05:19.958Z,95269.56
2018-08-10T01:07:49.046Z,95274.65
2018-08-10T01:10:19.752Z,95264.06
2018-08-10T01:12:48.799Z,95267.11
2018-08-10T01:15:18.275Z,95273.69
2018-08-10T01:17:48.003Z,95278.81
2018-08-10T01:20:24.332Z,95273.40
2018-08-10T01:22:58.535Z,95278.50
2018-08-10T01:25:28.149Z,95277.94
2018-08-10T01:28:01.204Z,95280.10
2018-08-10T01:30:31.057Z,95284.02
2018-08-10T01:33:00.343Z,95284.08
2018-08-10T01:35:29.603Z,95289.65
2018-08-10T01:38:00.154Z,95282.95
2018-08-10T01:40:29.081Z,95277.62
2018-08-10T01:42:58.255Z,95272.96
2018-08-10T01:45:26.978Z,95276.08
2018-08-10T01:47:56.228Z,95276.56
2018-08-10T01:50:25.063Z,95275.30
2018-08-10T01:52:53.929Z,95276.14
2018-08-10T01:55:23.355Z,95280.36
2018-08-10T01:57:52.329Z,95283.08
2018-08-10T02:00:21.059Z,95276.61
2018-08-10T02:02:50.107Z,95281.38
2018-08-10T02:05:18.905Z,95284.45
2018-08-10T02:07:47.915Z,95292.55
2018-08-10T02:10:18.569Z,95289.43
2018-08-10T02:12:53.423Z,95298.06
2018-08-10T02:15:22.491Z,95297.48
2018-08-10T02:17:51.263Z,95301.65
2018-08-10T02:20:21.616Z,95302.91
2018-08-10T02:22:50.282Z,95303.39
2018-08-10T02:25:20.486Z,95305.39
2018-08-10T02:27:50.310Z,95302.30
2018-08-10T02:30:20.664Z,95308.72
2018-08-10T02:32:49.963Z,95314.14
2018-08-10T02:35:18.624Z,95315.96
2018-08-10T02:37:47.950Z,95326.59
2018-08-10T02:40:19.226Z,95325.41
2018-08-10T02:42:49.203Z,95329.03
2018-08-10T02:45:18.476Z,95329.22
2018-08-10T02:47:48.190Z,95332.52
2018-08-10T02:50:17.700Z,95323.56
2018-08-10T02:52:46.806Z,95329.80
2018-08-10T02:55:15.922Z,95331.70
2018-08-10T02:57:45.413Z,95330.16
2018-08-10T03:00:15.303Z,95328.94
2018-08-10T03:02:44.588Z,95339.17
2018-08-10T03:05:13.689Z,95339.50
2018-08-10T03:07:42.913Z,95341.38
2018-08-10T03:10:13.044Z,95343.77
2018-08-10T03:12:41.928Z,95340.02
2018-08-10T03:15:13.818Z,95342.19
2018-08-10T03:17:43.404Z,95349.60
2018-08-10T03:20:12.596Z,95348.75
2018-08-10T03:22:42.510Z,95352.42
2018-08-10T03:25:12.947Z,95351.61
2018-08-10T03:27:41.821Z,95352.98
2018-08-10T03:30:11.992Z,95347.94
2018-08-10T03:32:40.679Z,95352.13
2018-08-10T03:35:09.428Z,95351.90
2018-08-10T03:37:39.249Z,95355.02
2018-08-10T03:40:11.143Z,95350.83
2018-08-10T03:42:40.403Z,95356.66
2018-08-10T03:45:09.503Z,95356.19
2018-08-10T03:47:38.806Z,95359.11
2018-08-10T03:50:09.386Z,95360.95
2018-08-10T03:52:38.506Z,95367.81
2018-08-10T03:55:07.664Z,95372.31
2018-08-10T03:57:37.142Z,95370.45
2018-08-10T04:00:07.639Z,95371.73
2018-08-10T04:02:36.315Z,95377.53
2018-08-10T04:05:05.675Z,95379.09
2018-08-10T04:07:34.740Z,95374.04
2018-08-10T04:10:03.783Z,95374.59
2018-08-10T04:12:33.050Z,95384.84
2018-08-10T04:15:02.191Z,95383.53
2018-08-10T04:17:31.371Z,95381.92
2018-08-10T04:20:00.641Z,95386.19
2018-08-10T04:22:29.300Z,95383.20
2018-08-10T04:24:58.531Z,95375.61
2018-08-10T04:27:27.248Z,95376.08
2018-08-10T04:29:56.088Z,95368.36
2018-08-10T04:32:24.840Z,95387.60
2018-08-10T04:34:53.951Z,95380.14
2018-08-10T04:37:23.034Z,95381.00
2018-08-10T04:39:52.225Z,95387.61
2018-08-10T04:42:20.955Z,95382.41
2018-08-10T04:44:49.783Z,95383.41
2018-08-10T04:47:18.973Z,95378.11
2018-08-10T04:49:48.474Z,95328.05
2018-08-10T04:52:17.650Z,95383.08
2018-08-10T04:54:46.719Z,95384.73
2018-08-10T04:57:15.767Z,95391.38
2018-08-10T04:59:44.563Z,95392.43
2018-08-10T05:02:13.479Z,95394.14
2018-08-10T05:04:42.781Z,95401.71
2018-08-10T05:07:11.863Z,95399.55
2018-08-10T05:09:40.737Z,95402.67
2018-08-10T05:12:10.255Z,95404.43
2018-08-10T05:14:39.518Z,95343.37
2018-08-10T05:17:08.426Z,95398.94
2018-08-10T05:19:37.942Z,95405.16
2018-08-10T05:22:07.120Z,95406.47
2018-08-10T05:24:36.225Z,95401.91
2018-08-10T05:27:04.955Z,95398.55
2018-08-10T05:29:34.241Z,95401.06
2018-08-10T05:32:03.839Z,95394.92
2018-08-10T05:34:32.798Z,95392.31
2018-08-10T05:37:02.262Z,95397.02
2018-08-10T05:39:31.402Z,95390.36
2018-08-10T05:42:00.396Z,95393.55
2018-08-10T05:44:29.745Z,95392.88
2018-08-10T05:46:58.823Z,95397.81
2018-08-10T05:49:27.912Z,95400.71
2018-08-10T05:51:57.331Z,95400.18
2018-08-10T05:54:26.446Z,95401.31
2018-08-10T05:56:55.069Z,95403.24
2018-08-10T05:59:24.187Z,95411.67
2018-08-10T06:01:52.931Z,95415.09
2018-08-10T06:04:21.971Z,95410.36
2018-08-10T06:06:51.296Z,95412.66
2018-08-10T06:09:20.172Z,95411.86
2018-08-10T06:11:48.914Z,95408.53
2018-08-10T06:14:17.849Z,95413.61
2018-08-10T06:16:47.000Z,95418.30
2018-08-10T06:19:15.940Z,95416.02
2018-08-10T06:21:45.452Z,95414.94
2018-08-10T06:24:14.611Z,95417.72
2018-08-10T06:26:43.589Z,95411.99
2018-08-10T06:29:13.008Z,95411.37
2018-08-10T06:31:41.846Z,95408.27
2018-08-10T06:34:10.569Z,95412.39
2018-08-10T06:36:39.530Z,95409.01
2018-08-10T06:39:09.938Z,95406.75
2018-08-10T06:41:39.267Z,95412.20
2018-08-10T06:44:08.876Z,95405.36
2018-08-10T06:46:38.092Z,95412.20
2018-08-10T06:49:07.147Z,95415.70
2018-08-10T06:51:36.576Z,95405.92
2018-08-10T06:54:05.316Z,95405.96
2018-08-10T06:56:34.141Z,95409.08
2018-08-10T06:59:02.868Z,95407.95
2018-08-10T07:01:31.716Z,95410.52
2018-08-10T07:04:00.654Z,95414.71
2018-08-10T07:06:29.827Z,95410.84
2018-08-10T07:09:30.578Z,95409.81
2018-08-10T07:12:00.015Z,95405.18
2018-08-10T07:14:28.826Z,95405.18
2018-08-10T07:16:57.694Z,95405.73
2018-08-10T07:19:26.633Z,95403.16
2018-08-10T07:21:55.370Z,95394.69
2018-08-10T07:24:24.404Z,95397.99
2018-08-10T07:26:53.312Z,95403.88
2018-08-10T07:29:21.972Z,95403.16
2018-08-10T07:31:50.938Z,95403.63
2018-08-10T07:34:19.982Z,95411.02
2018-08-10T07:36:48.883Z,95413.91
2018-08-10T07:39:17.545Z,95412.87
2018-08-10T07:41:46.285Z,95406.55
2018-08-10T07:44:15.025Z,95410.99
2018-08-10T07:46:43.805Z,95406.04
2018-08-10T07:49:13.039Z,95410.29
2018-08-10T07:51:42.102Z,95414.91
2018-08-10T07:54:10.890Z,95415.90
2018-08-10T07:56:39.884Z,95423.12
2018-08-10T07:59:08.923Z,95418.83
2018-08-10T08:01:37.989Z,95371.11
2018-08-10T08:04:07.819Z,95421.52
2018-08-10T08:06:36.918Z,95419.89
2018-08-10T08:09:08.922Z,95421.47
2018-08-10T08:11:38.149Z,95414.17
2018-08-10T08:14:06.954Z,95414.25
2018-08-10T08:16:42.752Z,95409.39
2018-08-10T08:19:11.934Z,95408.72
2018-08-10T08:22:16.126Z,95407.27
2018-08-10T08:24:45.155Z,95405.84
2018-08-10T08:27:15.427Z,95405.69
2018-08-10T08:29:44.478Z,95398.63
2018-08-10T08:32:13.658Z,95403.13
2018-08-10T08:34:42.718Z,95410.67
2018-08-10T08:37:12.212Z,95403.63
2018-08-10T08:40:51.684Z,95402.89
2018-08-10T08:43:39.105Z,95403.09
2018-08-10T08:46:12.114Z,95403.86
2018-08-10T08:48:44.755Z,95402.38
2018-08-10T08:51:30.076Z,95401.96
2018-08-10T08:54:10.028Z,95401.52
2018-08-10T08:56:44.001Z,95402.02
2018-08-10T08:59:13.102Z,95393.45
2018-08-10T09:01:42.001Z,95407.78
2018-08-10T09:05:05.734Z,95403.19
2018-08-10T09:07:35.136Z,95406.64
2018-08-10T09:10:06.618Z,95401.81
2018-08-10T09:12:35.627Z,95396.67
2018-08-10T09:15:07.739Z,95404.17
2018-08-10T09:17:36.516Z,95396.02
2018-08-10T09:20:06.734Z,95408.75
2018-08-10T09:22:36.295Z,95409.73
2018-08-10T09:25:08.010Z,95398.11
2018-08-10T09:27:37.114Z,95405.97
2018-08-10T09:30:08.823Z,95400.84
2018-08-10T09:32:38.134Z,95406.23
2018-08-10T09:35:08.196Z,95403.17
2018-08-10T09:37:37.428Z,95394.61
2018-08-10T09:40:10.532Z,95394.67
2018-08-10T09:42:39.310Z,95391.92
2018-08-10T09:45:09.171Z,95392.38
2018-08-10T09:47:38.650Z,95392.80
2018-08-10T09:50:09.224Z,95386.17
2018-08-10T09:52:37.995Z,95383.12
2018-08-10T09:55:28.519Z,95376.50
2018-08-10T09:58:04.449Z,95386.53
2018-08-10T10:00:38.867Z,95372.48
2018-08-10T10:03:13.859Z,95372.63
2018-08-10T10:05:43.559Z,95370.11
2018-08-10T10:08:12.993Z,95370.08
2018-08-10T10:10:42.083Z,95377.05
2018-08-10T10:13:11.422Z,95376.46
2018-08-10T10:15:40.427Z,95373.78
2018-08-10T10:18:10.760Z,95379.38
2018-08-10T10:20:39.907Z,95374.30
2018-08-10T10:23:08.693Z,95366.52
2018-08-10T10:25:37.300Z,95379.02
2018-08-10T10:28:06.601Z,95381.09
2018-08-10T10:30:35.596Z,95377.31
2018-08-10T10:33:04.683Z,95364.17
2018-08-10T10:35:33.906Z,95322.16
2018-08-10T10:38:02.944Z,95366.55
2018-08-10T10:40:31.694Z,95366.25
2018-08-10T10:43:00.882Z,95359.94
2018-08-10T10:45:29.792Z,95351.86
2018-08-10T10:47:58.839Z,95352.58
2018-08-10T10:50:27.868Z,95348.15
2018-08-10T10:52:56.970Z,95343.52
2018-08-10T10:55:25.758Z,95336.85
2018-08-10T10:57:54.891Z,95334.22
2018-08-10T11:00:23.678Z,95327.92
2018-08-10T11:02:52.805Z,95333.34
2018-08-10T11:05:22.136Z,95331.34
2018-08-10T11:07:50.840Z,95329.84
2018-08-10T11:10:20.302Z,95324.31
2018-08-10T11:12:49.427Z,95328.81
2018-08-10T11:15:18.323Z,95326.61
2018-08-10T11:17:47.258Z,95321.19
2018-08-10T11:20:16.480Z,95326.14
2018-08-10T11:22:45.395Z,95317.00
2018-08-10T11:25:15.123Z,95327.52
2018-08-10T11:27:44.914Z,95318.17
2018-08-10T11:30:14.134Z,95319.95
2018-08-10T11:32:43.250Z,95316.52
2018-08-10T11:35:12.723Z,95320.28
2018-08-10T11:37:41.497Z,95329.78
2018-08-10T11:40:13.357Z,95324.70
2018-08-10T11:42:43.056Z,95320.23
2018-08-10T11:45:14.658Z,95328.59
2018-08-10T11:47:43.767Z,95313.81
2018-08-10T11:50:12.833Z,95317.42
2018-08-10T11:52:41.942Z,95313.05
2018-08-10T11:55:12.404Z,95311.17
2018-08-10T11:57:41.635Z,95311.38
2018-08-10T12:00:12.637Z,95303.22
2018-08-10T12:02:41.706Z,95311.16
2018-08-10T12:05:12.345Z,95304.85
2018-08-10T12:07:42.086Z,95307.00
2018-08-10T12:10:11.093Z,95298.80
2018-08-10T12:12:40.137Z,95294.34
2018-08-10T12:15:11.105Z,95298.70
2018-08-10T12:17:39.932Z,95292.72
2018-08-10T12:20:09.188Z,95292.73
2018-08-10T12:22:38.350Z,95297.64
2018-08-10T12:25:07.070Z,95289.29
2018-08-10T12:27:36.213Z,95293.81
2018-08-10T12:30:06.244Z,95281.23
2018-08-10T12:32:35.540Z,95257.31
2018-08-10T12:35:04.742Z,95280.41
2018-08-10T12:37:33.944Z,95284.39
2018-08-10T12:40:02.866Z,95285.12
2018-08-10T12:42:32.147Z,95279.88
2018-08-10T12:45:01.452Z,95280.66
2018-08-10T12:47:30.317Z,95276.86
2018-08-10T12:49:59.506Z,95285.95
2018-08-10T12:52:28.543Z,95278.04
2018-08-10T12:54:57.481Z,95271.58
2018-08-10T12:57:26.923Z,95271.40
2018-08-10T12:59:56.366Z,95267.09
2018-08-10T13:02:25.454Z,95268.87
2018-08-10T13:04:54.367Z,95269.90
2018-08-10T13:07:23.622Z,95272.06
2018-08-10T13:09:52.536Z,95263.78
2018-08-10T13:12:21.315Z,95263.41
2018-08-10T13:14:50.608Z,95256.62
2018-08-10T13:17:19.538Z,95259.72
2018-08-10T13:19:48.324Z,95255.23
2018-08-10T13:22:18.215Z,95253.24
2018-08-10T13:24:46.946Z,95264.34
2018-08-10T13:27:15.888Z,95267.14
2018-08-10T13:29:45.465Z,95226.64
2018-08-10T13:32:14.451Z,95268.26
2018-08-10T13:34:43.200Z,95270.97
2018-08-10T13:37:12.167Z,95266.68
2018-08-10T13:39:41.071Z,95260.87
2018-08-10T13:42:10.177Z,95262.83
2018-08-10T13:44:39.017Z,95264.96
2018-08-10T13:47:07.933Z,95275.65
2018-08-10T13:49:37.131Z,95234.66
2018-08-10T13:52:05.827Z,95274.66
2018-08-10T13:54:34.560Z,95270.08
2018-08-10T13:57:04.098Z,95268.95
2018-08-10T13:59:33.296Z,95254.85
2018-08-10T14:02:02.240Z,95259.83
2018-08-10T14:04:31.406Z,95261.64
2018-08-10T14:07:00.554Z,95258.38
2018-08-10T14:09:29.614Z,95269.13
2018-08-10T14:11:59.061Z,95264.85
2018-08-10T14:14:28.211Z,95265.26
2018-08-10T14:16:57.470Z,95262.29
2018-08-10T14:19:26.913Z,95258.07
2018-08-10T14:21:55.657Z,95251.72
2018-08-10T14:24:24.512Z,95260.42
2018-08-10T14:26:54.232Z,95261.19
2018-08-10T14:29:23.175Z,95264.77
2018-08-10T14:31:51.963Z,95255.22
2018-08-10T14:34:21.287Z,95261.69
2018-08-10T14:36:50.308Z,95248.53
2018-08-10T14:39:19.396Z,95258.66
2018-08-10T14:41:48.735Z,95259.84
2018-08-10T14:44:17.500Z,95265.54
2018-08-10T14:46:46.363Z,95272.22
2018-08-10T14:49:15.191Z,95276.53
2018-08-10T14:51:43.972Z,95275.98
2018-08-10T14:54:12.727Z,95275.03
2018-08-10T14:56:42.034Z,95275.18
2018-08-10T14:59:11.001Z,95272.77
2018-08-10T15:01:39.999Z,95272.13
2018-08-10T15:04:09.077Z,95262.47
2018-08-10T15:06:38.119Z,95274.55
2018-08-10T15:09:10.864Z,95273.38
2018-08-10T15:11:39.906Z,95266.58
2018-08-10T15:14:09.250Z,95270.80
2018-08-10T15:16:38.216Z,95265.89
2018-08-10T15:19:07.249Z,95276.34
2018-08-10T15:21:35.990Z,95269.70
2018-08-10T15:24:05.046Z,95271.92
2018-08-10T15:26:33.734Z,95267.42
2018-08-10T15:29:02.920Z,95265.38
2018-08-10T15:31:32.570Z,95268.77
2018-08-10T15:34:01.709Z,95273.93
2018-08-10T15:36:30.765Z,95274.30
2018-08-10T15:38:59.924Z,95280.34
2018-08-10T15:41:28.993Z,95275.41
2018-08-10T15:43:57.757Z,95278.62
2018-08-10T15:46:26.831Z,95276.95
2018-08-10T15:48:55.899Z,95275.89
2018-08-10T15:51:24.649Z,95272.44
2018-08-10T15:53:53.845Z,95270.41
2018-08-10T15:56:22.735Z,95276.24
2018-08-10T15:58:51.367Z,95284.28
2018-08-10T16:01:20.447Z,95283.52
2018-08-10T16:03:49.327Z,95285.63
2018-08-10T16:06:18.278Z,95274.71
2018-08-10T16:08:47.652Z,95275.30
2018-08-10T16:11:16.825Z,95284.25
2018-08-10T16:13:45.915Z,95278.63
2018-08-10T16:16:15.382Z,95273.17
2018-08-10T16:18:44.467Z,95274.85
2018-08-10T16:21:13.380Z,95273.63
2018-08-10T16:23:42.421Z,95281.56
2018-08-10T16:26:11.186Z,95276.59
2018-08-10T16:28:40.211Z,95277.75
2018-08-10T16:31:09.491Z,95279.72
2018-08-10T16:33:38.507Z,95281.27
2018-08-10T16:36:07.653Z,95279.80
2018-08-10T16:38:36.832Z,95271.50
2018-08-10T16:41:05.782Z,95273.09
2018-08-10T16:43:34.893Z,95290.36
2018-08-10T16:46:04.245Z,95287.60
2018-08-10T16:48:33.171Z,95295.33
2018-08-10T16:51:02.082Z,95294.41
2018-08-10T16:53:31.393Z,95292.22
2018-08-10T16:56:00.147Z,95290.10
2018-08-10T16:58:29.051Z,95296.67
2018-08-10T17:00:58.175Z,95293.26
2018-08-10T17:03:27.343Z,95307.98
2018-08-10T17:05:56.456Z,95303.89
2018-08-10T17:08:25.909Z,95308.81
2018-08-10T17:10:55.181Z,95305.23
2018-08-10T17:13:24.430Z,95311.66
2018-08-10T17:15:53.689Z,95319.13
2018-08-10T17:18:22.767Z,95316.80
2018-08-10T17:20:51.591Z,95327.09
2018-08-10T17:23:20.363Z,95317.51
2018-08-10T17:25:49.331Z,95314.52
2018-08-10T17:28:18.345Z,95313.16
2018-08-10T17:30:47.515Z,95320.09
2018-08-10T17:33:16.506Z,95319.14
2018-08-10T17:35:45.591Z,95316.36
2018-08-10T17:38:14.551Z,95322.16
2018-08-10T17:40:43.619Z,95325.61
2018-08-10T17:43:12.779Z,95334.78
2018-08-10T17:45:41.961Z,95338.99
2018-08-10T17:48:10.902Z,95336.34
2018-08-10T17:50:40.205Z,95344.19
2018-08-10T17:53:09.395Z,95343.44
2018-08-10T17:55:39.009Z,95346.42
2018-08-10T17:58:07.915Z,95350.92
2018-08-10T18:00:37.218Z,95346.33
2018-08-10T18:03:07.100Z,95346.41
2018-08-10T18:05:36.024Z,95355.19
2018-08-10T18:08:05.141Z,95361.30
2018-08-10T18:10:34.434Z,95358.23
2018-08-10T18:13:03.311Z,95359.89
2018-08-10T18:15:32.518Z,95360.84
2018-08-10T18:18:01.344Z,95354.52
2018-08-10T18:20:30.126Z,95358.67
2018-08-10T18:22:59.008Z,95363.72
2018-08-10T18:25:27.708Z,95361.75
2018-08-10T18:27:56.975Z,95358.90
2018-08-10T18:30:26.413Z,95359.30
2018-08-10T18:32:55.492Z,95359.99
2018-08-10T18:35:24.444Z,95365.39
2018-08-10T18:37:53.857Z,95372.60
2018-08-10T18:40:23.009Z,95369.47
2018-08-10T18:42:52.045Z,95334.02
2018-08-10T18:45:21.902Z,95368.26
2018-08-10T18:47:50.694Z,95369.53
2018-08-10T18:50:20.254Z,95371.86
2018-08-10T18:52:49.295Z,95375.21
2018-08-10T18:55:19.846Z,95373.23
2018-08-10T18:57:49.399Z,95371.92
2018-08-10T19:00:20.894Z,95366.55
2018-08-10T19:02:50.178Z,95375.98
2018-08-10T19:05:19.353Z,95367.76
2018-08-10T19:07:49.020Z,95372.84
2018-08-10T19:10:24.305Z,95378.53
2018-08-10T19:12:53.034Z,95371.27
2018-08-10T19:15:21.974Z,95375.25
2018-08-10T19:17:51.067Z,95377.34
2018-08-10T19:20:19.847Z,95375.37
2018-08-10T19:22:48.746Z,95375.88
2018-08-10T19:25:18.583Z,95378.30
2018-08-10T19:27:47.764Z,95376.73
2018-08-10T19:30:20.025Z,95382.17
2018-08-10T19:32:49.335Z,95379.16
2018-08-10T19:35:18.857Z,95378.72
2018-08-10T19:37:47.776Z,95375.16
2018-08-10T19:40:18.121Z,95374.51
2018-08-10T19:42:47.312Z,95370.02
2018-08-10T19:45:17.211Z,95365.52
2018-08-10T19:47:46.005Z,95374.14
2018-08-10T19:50:16.390Z,95376.58
2018-08-10T19:52:45.144Z,95373.03
2018-08-10T19:55:15.245Z,95373.34
2018-08-10T19:57:44.188Z,95376.45
2018-08-10T20:00:15.845Z,95377.13
2018-08-10T20:02:46.806Z,95374.42
2018-08-10T20:05:16.123Z,95370.83
2018-08-10T20:07:45.400Z,95368.75
2018-08-10T20:10:15.098Z,95373.85
2018-08-10T20:12:44.295Z,95370.58
2018-08-10T20:15:14.838Z,95363.91
2018-08-10T20:17:43.632Z,95369.61
2018-08-10T20:20:15.309Z,95370.38
2018-08-10T20:22:44.355Z,95364.84
2018-08-10T20:25:13.939Z,95361.78
2018-08-10T20:27:43.191Z,95359.98
2018-08-10T20:30:13.826Z,95365.09
2018-08-10T20:32:43.237Z,95364.52
2018-08-10T20:35:15.129Z,95369.51
2018-08-10T20:37:44.311Z,95364.84
2018-08-10T20:40:15.846Z,95362.68
2018-08-10T20:42:45.059Z,95361.31
2018-08-10T20:45:14.279Z,95355.38
2018-08-10T20:47:43.212Z,95359.05
2018-08-10T20:50:15.586Z,95357.32
2018-08-10T20:52:45.453Z,95356.03
2018-08-10T20:55:14.298Z,95357.83
2018-08-10T20:57:44.075Z,95352.29
2018-08-10T21:00:13.217Z,95352.04
2018-08-10T21:02:43.641Z,95347.97
2018-08-10T21:05:13.541Z,95343.81
2018-08-10T21:07:42.475Z,95346.14
2018-08-10T21:10:13.113Z,95344.99
2018-08-10T21:12:42.591Z,95336.08
2018-08-10T21:15:12.754Z,95338.41
2018-08-10T21:17:42.486Z,95338.74
2018-08-10T21:20:13.259Z,95346.68
2018-08-10T21:22:42.399Z,95347.11
2018-08-10T21:25:12.605Z,95350.47
2018-08-10T21:30:21.343Z,95335.91
2018-08-10T21:32:50.499Z,95340.06
2018-08-10T21:35:19.527Z,95346.88
2018-08-10T21:37:48.736Z,95348.80
2018-08-10T21:40:17.607Z,95348.73
2018-08-10T21:42:46.486Z,95345.88
2018-08-10T21:45:15.215Z,95343.13
2018-08-10T21:47:44.140Z,95340.70
2018-08-10T21:50:14.275Z,95344.94
2018-08-10T21:52:44.320Z,95343.66
2018-08-10T21:55:13.216Z,95336.87
2018-08-10T21:57:42.414Z,95336.48
2018-08-10T22:00:57.080Z,95333.83
2018-08-10T22:03:25.864Z,95336.80
2018-08-10T22:05:54.759Z,95339.72
2018-08-10T22:08:24.732Z,95335.92
2018-08-10T22:10:53.753Z,95335.57
2018-08-10T22:13:28.296Z,95337.16
2018-08-10T22:16:02.253Z,95334.05
2018-08-10T22:18:36.391Z,95341.39
2018-08-10T22:21:05.288Z,95345.63
2018-08-10T22:23:34.067Z,95346.52
2018-08-10T22:26:03.371Z,95352.66
2018-08-10T22:28:32.508Z,95356.50
2018-08-10T22:31:01.422Z,95349.19
2018-08-10T22:33:30.366Z,95351.19
2018-08-10T22:35:59.273Z,95341.16
2018-08-10T22:38:28.468Z,95342.05
2018-08-10T22:40:57.181Z,95340.33
2018-08-10T22:43:26.124Z,95341.31
2018-08-10T22:45:54.819Z,95345.64
2018-08-10T22:48:23.912Z,95339.73
2018-08-10T22:50:52.568Z,95345.75
2018-08-10T22:53:21.494Z,95338.48
2018-08-10T22:55:50.624Z,95338.13
2018-08-10T22:58:19.378Z,95336.27
2018-08-10T23:00:48.455Z,95334.05
2018-08-10T23:03:17.707Z,95337.24
2018-08-10T23:05:46.325Z,95327.72
2018-08-10T23:08:15.465Z,95324.61
2018-08-10T23:10:44.777Z,95330.43
2018-08-10T23:13:13.687Z,95326.78
2018-08-10T23:15:42.414Z,95327.94
2018-08-10T23:18:11.394Z,95325.28
2018-08-10T23:20:40.043Z,95328.62
2018-08-10T23:23:08.927Z,95333.52
2018-08-10T23:25:38.186Z,95328.11
2018-08-10T23:28:07.357Z,95334.56
2018-08-10T23:30:36.433Z,95339.77
2018-08-10T23:33:05.579Z,95333.74
2018-08-10T23:35:34.595Z,95340.52
2018-08-10T23:38:03.432Z,95340.45
2018-08-10T23:40:32.541Z,95336.41
2018-08-10T23:43:01.383Z,95327.53
2018-08-10T23:45:30.163Z,95335.72
2018-08-10T23:47:59.065Z,95333.97
2018-08-10T23:50:28.188Z,95339.08
2018-08-10T23:52:57.105Z,95346.24
2018-08-10T23:55:26.285Z,95341.16
2018-08-10T23:57:55.239Z,95348.15
